Log in Register

Login to your account

Username *
Password *
Remember Me

Create an account

Fields marked with an asterisk (*) are required.
Name *
Username *
Password *
Verify password *
Email *
Verify email *

JOURNEE PORTES OUVERTES

 

JPO 2021

 

 

Le 26  SEPTEMBRE prochain, venez découvrir notre aéroclub et son école de pilotage

10h-19h

 Entrée gratuite, sous réserve de présentation d'un pass sanitaire valide pour les visiteurs majeurs

 

- Exposition statique d'avions et visite des cockpits

- Vols découverte : 20 minutes, avions 4 places, 30€/personne. A partir de 5 ans*. Aucunes réservations préalables. Décollage uniquement lorsqu'avion complet.

- Vols découverte du pilotage (instruction) : avions 2 places, 20 minutes, 100€. A partir de 14 ans*

- Simulateur de vol :  A partir de 6 ans (accompagné). GRATUIT

Buvette et petite restauration (midi uniquement)

 

P1060023

 

Renseignements par téléphone ou sur place au club, selon les horaires indiqués dans la rubrique contact(https://www.aeroclub-savoie.com/index.php?option=com_content&view=article&id=5&Itemid=123&lang=fr)

Interdiction de fumer côté piste et en espaces intérieurs.

Port du masque obligatoire dans les espaces clos et à bord des avions (même en statique). Gel hydroalcoolique à disposition.

Vols effectués selon météo et disponibilité mécanique des machines

*Une autorisation parentale sera exigée en cas de vol pour un/des mineurs non accompagné(s) d'un responsable légal. Télécharger

Nous contacter

 Téléphone : +33 (0)4 79 54 41 81

Coordonnées détaillées et accès : cliquez ici

 
LFLB °C
    Ferienhaus Ostsee
[source: ADDS]
METAR
LFLB 181930Z AUTO VRB02KT CAVOK 16/15 Q1012 =
TAF LFLB 181400Z 1815/1915 36005KT CAVOK BECMG 1819/1821 VRB02KT TEMPO 1823/1904 4000 RA BKN020 BKN030TCU OVC050 PROB40 TEMPO 1823/1903 27015G30KT 2000 TSRA BKN011 SCT020CB PROB30 TEMPO 1900/1903 27025G50KT BECMG 1904/1906 16005KT 5000 -RA BKN040 TEMPO 1908/1915 4000 RA SCT020TCU BKN030
TAF
TAF LFLB 181400Z 1815/1915 36005KT CAVOK BECMG 1819/1821 VRB02KT TEMPO 1823/1904 4000 RA BKN020 BKN030TCU OVC050 PROB40 TEMPO 1823/1903 27015G30KT 2000 TSRA BKN011 SCT020CB PROB30 TEMPO 1900/1903 27025G50KT BECMG 1904/1906 16005KT 5000 -RA BKN040 TEMPO 1908/1915 4000 RA SCT020TCU BKN030 =
SR / SS: 05:18 / 17:42 UTC (Lever/Coucher du soleil le 2021-09-18)
JSN Boot template designed by JoomlaShine.com